< < Back
Terminal Aerodrome Forecast


Current Version              Previous Versions:   1  2  3  4  5  6  7  8  9  

Terminal Aerodrome Forecast

602
FTUS42 KCAE 241720
TAFCAE
TAF
KCAE 241720Z 2418/2518 12008G13KT P6SM SCT040
     FM250000 VRB04KT P6SM SKC=

Latest METAR

069
SAUS80 KWBC 242300
MTRCAE
METAR KCAE 242256Z 11012KT 10SM FEW060 28/12 A3027 RMK AO2 SLP249
T02780117


USA.gov is the U.S. government's official web portal to all federal, state and local government web resources and services.